createdAt,value
2019-05-10T00:02:07.653Z,2.20
2019-05-10T00:04:35.264Z,1.75
2019-05-10T00:07:02.850Z,1.67
2019-05-10T00:09:30.467Z,1.25
2019-05-10T00:11:58.652Z,1.37
2019-05-10T00:14:26.518Z,2.50
2019-05-10T00:16:54.096Z,0.70
2019-05-10T00:19:21.856Z,0.82
2019-05-10T00:21:49.462Z,0.72
2019-05-10T00:24:17.090Z,1.35
2019-05-10T00:26:44.669Z,1.95
2019-05-10T00:29:12.615Z,4.30
2019-05-10T00:31:40.209Z,2.22
2019-05-10T00:34:07.810Z,1.72
2019-05-10T00:36:35.396Z,0.82
2019-05-10T00:39:04.384Z,0.72
2019-05-10T00:41:31.972Z,1.22
2019-05-10T00:43:59.876Z,0.78
2019-05-10T00:46:27.459Z,0.60
2019-05-10T00:48:55.077Z,3.17
2019-05-10T00:51:22.974Z,0.60
2019-05-10T00:53:51.611Z,1.15
2019-05-10T00:56:19.480Z,5.60
2019-05-10T00:58:47.075Z,2.37
2019-05-10T01:01:18.437Z,4.30
2019-05-10T01:03:43.923Z,1.95
2019-05-10T01:06:11.545Z,1.72
2019-05-10T01:08:39.426Z,0.72
2019-05-10T01:11:07.362Z,2.25
2019-05-10T01:13:34.945Z,1.30
2019-05-10T01:16:02.566Z,1.00
2019-05-10T01:18:30.435Z,1.70
2019-05-10T01:20:58.345Z,2.05
2019-05-10T01:23:25.930Z,0.55
2019-05-10T01:25:53.550Z,2.17
2019-05-10T01:28:21.422Z,1.05
2019-05-10T01:30:49.045Z,0.60
2019-05-10T01:33:16.631Z,1.65
2019-05-10T01:35:44.254Z,0.80
2019-05-10T01:38:11.841Z,1.02
2019-05-10T01:40:39.752Z,1.00
2019-05-10T01:43:07.340Z,2.87
2019-05-10T01:45:35.285Z,2.08
2019-05-10T01:48:02.941Z,2.27
2019-05-10T01:50:30.564Z,1.70
2019-05-10T01:52:58.174Z,2.05
2019-05-10T01:55:25.776Z,1.25
2019-05-10T01:57:53.367Z,3.37
2019-05-10T02:00:20.976Z,4.12
2019-05-10T02:02:48.583Z,3.02
2019-05-10T02:05:16.206Z,1.00
2019-05-10T02:07:43.802Z,1.72
2019-05-10T02:10:11.729Z,3.95
2019-05-10T02:12:39.314Z,2.65
2019-05-10T02:15:06.978Z,2.72
2019-05-10T02:17:34.593Z,1.40
2019-05-10T02:20:02.452Z,3.33
2019-05-10T02:22:30.076Z,3.17
2019-05-10T02:24:57.704Z,2.08
2019-05-10T02:27:25.295Z,1.45
2019-05-10T02:29:53.015Z,1.87
2019-05-10T02:32:20.630Z,1.15
2019-05-10T02:34:48.224Z,1.62
2019-05-10T02:37:16.126Z,1.57
2019-05-10T02:39:43.709Z,1.90
2019-05-10T02:42:11.329Z,2.45
2019-05-10T02:44:38.921Z,1.45
2019-05-10T02:47:06.541Z,2.30
2019-05-10T02:49:34.143Z,1.92
2019-05-10T02:52:01.764Z,1.50
2019-05-10T02:54:29.354Z,3.40
2019-05-10T02:56:56.958Z,2.50
2019-05-10T02:59:25.143Z,1.90
2019-05-10T03:01:52.973Z,2.98
2019-05-10T03:04:21.143Z,1.90
2019-05-10T03:06:48.774Z,3.65
2019-05-10T03:09:16.635Z,3.60
2019-05-10T03:11:48.010Z,2.02
2019-05-10T03:14:18.893Z,3.10
2019-05-10T03:16:49.757Z,1.30
2019-05-10T03:19:18.983Z,2.25
2019-05-10T03:21:50.601Z,4.65
2019-05-10T03:24:18.190Z,3.17
2019-05-10T03:26:50.615Z,2.45
2019-05-10T03:29:16.885Z,3.27
2019-05-10T03:31:44.491Z,3.75
2019-05-10T03:34:12.092Z,3.83
2019-05-10T03:36:39.715Z,2.42
2019-05-10T03:39:07.579Z,2.22
2019-05-10T03:41:35.179Z,1.87
2019-05-10T03:44:02.798Z,3.27
2019-05-10T03:46:30.382Z,4.20
2019-05-10T03:48:58.011Z,1.92
2019-05-10T03:51:25.615Z,2.58
2019-05-10T03:53:53.243Z,3.05
2019-05-10T03:56:20.826Z,1.52
2019-05-10T03:58:48.439Z,2.15
2019-05-10T04:01:16.034Z,1.55
2019-05-10T04:03:43.807Z,2.35
2019-05-10T04:06:11.381Z,2.80
2019-05-10T04:08:39.007Z,3.17
2019-05-10T04:11:06.594Z,2.20
2019-05-10T04:13:34.217Z,2.22
2019-05-10T04:16:01.785Z,3.72
2019-05-10T04:18:29.417Z,1.72
2019-05-10T04:20:56.996Z,2.15
2019-05-10T04:23:24.612Z,4.35
2019-05-10T04:25:52.205Z,5.00
2019-05-10T04:28:19.813Z,3.10
2019-05-10T04:30:47.410Z,2.72
2019-05-10T04:33:15.037Z,2.35
2019-05-10T04:35:42.632Z,4.15
2019-05-10T04:38:10.547Z,3.87
2019-05-10T04:40:38.137Z,2.27
2019-05-10T04:43:05.749Z,2.42
2019-05-10T04:45:33.342Z,2.70
2019-05-10T04:48:00.962Z,2.35
2019-05-10T04:50:28.550Z,2.92
2019-05-10T04:53:05.035Z,2.27
2019-05-10T04:55:34.495Z,6.22
2019-05-10T04:58:02.105Z,1.57
2019-05-10T05:00:30.766Z,2.90
2019-05-10T05:02:58.765Z,7.28
2019-05-10T05:05:29.438Z,2.87
2019-05-10T05:07:57.038Z,2.30
2019-05-10T05:10:24.625Z,2.52
2019-05-10T05:12:52.258Z,6.05
2019-05-10T05:15:19.840Z,2.37
2019-05-10T05:17:47.452Z,2.00
2019-05-10T05:20:15.045Z,3.65
2019-05-10T05:22:42.633Z,3.37
2019-05-10T05:25:10.257Z,2.20
2019-05-10T05:27:37.840Z,2.77
2019-05-10T05:30:06.619Z,4.22
2019-05-10T05:32:38.528Z,2.15
2019-05-10T05:35:05.457Z,4.50
2019-05-10T05:37:33.055Z,2.70
2019-05-10T05:40:00.681Z,6.60
2019-05-10T05:42:29.403Z,5.60
2019-05-10T05:44:57.087Z,3.33
2019-05-10T05:47:24.676Z,3.30
2019-05-10T05:49:52.285Z,4.72
2019-05-10T05:52:19.883Z,2.67
2019-05-10T05:54:47.493Z,2.27
2019-05-10T05:57:15.076Z,2.00
2019-05-10T05:59:42.699Z,1.32
2019-05-10T06:02:10.285Z,1.62
2019-05-10T06:04:40.739Z,2.65
2019-05-10T06:07:07.138Z,2.37
2019-05-10T06:09:37.810Z,1.67
2019-05-10T06:12:07.479Z,2.47
2019-05-10T06:14:33.753Z,3.92
2019-05-10T06:17:01.364Z,1.50
2019-05-10T06:19:30.653Z,3.33
2019-05-10T06:22:04.466Z,2.17
2019-05-10T06:24:27.995Z,1.65
2019-05-10T06:26:58.355Z,3.33
2019-05-10T06:29:24.837Z,2.05
2019-05-10T06:31:52.433Z,2.80
2019-05-10T06:34:20.054Z,1.77
2019-05-10T06:36:47.641Z,1.50
2019-05-10T06:39:15.263Z,1.30
2019-05-10T06:41:42.851Z,2.15
2019-05-10T06:44:10.752Z,2.98
2019-05-10T06:46:38.356Z,1.77
2019-05-10T06:49:08.340Z,1.60
2019-05-10T06:51:35.205Z,1.85
2019-05-10T06:54:02.852Z,1.35
2019-05-10T06:56:30.555Z,0.85
2019-05-10T06:59:12.252Z,1.52
2019-05-10T07:01:27.749Z,1.60
2019-05-10T07:03:55.386Z,1.98
2019-05-10T07:06:22.968Z,2.20
2019-05-10T07:08:51.866Z,0.98
2019-05-10T07:11:19.829Z,0.45
2019-05-10T07:13:52.573Z,1.35
2019-05-10T07:16:24.155Z,0.70
2019-05-10T07:18:45.916Z,1.72
2019-05-10T07:21:13.537Z,0.98
2019-05-10T07:23:44.732Z,1.85
2019-05-10T07:26:10.395Z,0.85
2019-05-10T07:28:38.035Z,1.45
2019-05-10T07:31:06.173Z,1.55
2019-05-10T07:33:37.356Z,3.87
2019-05-10T07:36:03.398Z,1.30
2019-05-10T07:38:32.885Z,1.12
2019-05-10T07:41:00.348Z,1.32
2019-05-10T07:43:29.077Z,1.15
2019-05-10T07:45:58.650Z,1.27
2019-05-10T07:48:26.080Z,1.10
2019-05-10T07:50:53.713Z,1.20
2019-05-10T07:53:22.975Z,1.17
2019-05-10T07:55:50.712Z,0.95
2019-05-10T07:58:18.607Z,2.25
2019-05-10T08:00:46.771Z,1.52
2019-05-10T08:03:17.628Z,2.08
2019-05-10T08:05:46.316Z,1.15
2019-05-10T08:08:13.415Z,1.95
2019-05-10T08:10:41.024Z,2.10
2019-05-10T08:13:08.624Z,1.45
2019-05-10T08:15:38.154Z,1.92
2019-05-10T08:18:05.784Z,1.90
2019-05-10T08:20:46.456Z,2.72
2019-05-10T08:23:02.918Z,1.95
2019-05-10T08:25:39.252Z,2.90
2019-05-10T08:28:03.422Z,2.95
2019-05-10T08:30:42.532Z,2.60
2019-05-10T08:33:09.640Z,2.92
2019-05-10T08:35:38.750Z,2.87
2019-05-10T08:38:05.663Z,6.35
2019-05-10T08:40:36.925Z,3.95
2019-05-10T08:43:06.656Z,3.10
2019-05-10T08:45:32.508Z,2.70
2019-05-10T08:48:05.599Z,3.22
2019-05-10T08:50:48.442Z,2.02
2019-05-10T08:53:02.322Z,3.00
2019-05-10T08:55:28.272Z,3.75
2019-05-10T08:57:55.898Z,5.15
2019-05-10T09:00:41.411Z,5.00
2019-05-10T09:02:52.740Z,3.85
2019-05-10T09:05:28.617Z,2.62
2019-05-10T09:07:52.139Z,3.08
2019-05-10T09:10:19.153Z,6.25
2019-05-10T09:12:51.226Z,3.12
2019-05-10T09:15:16.340Z,3.85
2019-05-10T09:17:43.954Z,5.75
2019-05-10T09:20:20.454Z,5.42
2019-05-10T09:22:42.373Z,3.30
2019-05-10T09:25:12.911Z,7.15
2019-05-10T09:27:42.890Z,3.65
2019-05-10T09:30:14.098Z,5.33
2019-05-10T09:32:39.963Z,6.33
2019-05-10T09:35:09.256Z,4.78
2019-05-10T09:37:36.985Z,4.15
2019-05-10T09:40:09.876Z,6.03
2019-05-10T09:42:39.939Z,3.87
2019-05-10T09:45:09.089Z,3.40
2019-05-10T09:47:34.870Z,2.40
2019-05-10T09:50:02.725Z,3.75
2019-05-10T09:52:30.348Z,5.95
2019-05-10T09:54:57.934Z,5.37
2019-05-10T09:57:27.883Z,1.40
2019-05-10T09:59:57.115Z,3.15
2019-05-10T10:02:32.749Z,2.17
2019-05-10T10:04:53.877Z,2.17
2019-05-10T10:07:24.167Z,4.12
2019-05-10T10:09:51.033Z,3.52
2019-05-10T10:12:18.657Z,2.65
2019-05-10T10:14:47.273Z,1.85
2019-05-10T10:17:17.605Z,2.85
2019-05-10T10:19:44.406Z,1.72
2019-05-10T10:22:13.269Z,2.10
2019-05-10T10:24:41.274Z,3.35
2019-05-10T10:27:08.940Z,2.08
2019-05-10T10:29:38.691Z,1.85
2019-05-10T10:32:07.925Z,2.95
2019-05-10T10:34:38.680Z,1.45
2019-05-10T10:37:04.324Z,1.20
2019-05-10T10:39:31.917Z,1.20
2019-05-10T10:42:02.524Z,2.08
2019-05-10T10:44:29.063Z,1.40
2019-05-10T10:46:58.345Z,1.87
2019-05-10T10:49:28.065Z,2.90
2019-05-10T10:51:57.356Z,1.00
2019-05-10T10:54:28.676Z,1.15
2019-05-10T10:56:53.944Z,4.40
2019-05-10T10:59:21.565Z,1.75
2019-05-10T11:01:56.680Z,1.90
2019-05-10T11:04:18.429Z,1.82
2019-05-10T11:06:46.337Z,4.95
2019-05-10T11:09:13.952Z,1.50
2019-05-10T11:11:44.660Z,4.97
2019-05-10T11:14:11.138Z,1.42
2019-05-10T11:16:41.082Z,1.22
2019-05-10T11:19:11.505Z,2.83
2019-05-10T11:21:37.269Z,2.27
2019-05-10T11:24:10.412Z,3.15
2019-05-10T11:26:36.849Z,2.15
2019-05-10T11:29:03.404Z,1.40
2019-05-10T11:31:31.307Z,1.75
2019-05-10T11:34:01.601Z,2.55
2019-05-10T11:36:28.250Z,1.85
2019-05-10T11:38:58.484Z,2.35
2019-05-10T11:41:25.397Z,1.42
2019-05-10T11:43:57.956Z,4.12
2019-05-10T11:46:23.630Z,2.37
2019-05-10T11:48:55.863Z,2.90
2019-05-10T11:51:23.450Z,4.28
2019-05-10T11:53:55.488Z,4.00
2019-05-10T11:56:26.781Z,3.33
2019-05-10T11:58:55.356Z,2.02
2019-05-10T12:01:22.148Z,2.72
2019-05-10T12:03:49.097Z,1.65
2019-05-10T12:06:16.692Z,2.15
2019-05-10T12:08:44.310Z,2.00
2019-05-10T12:11:27.709Z,2.65
2019-05-10T12:13:44.077Z,2.77
2019-05-10T12:16:16.361Z,2.17
2019-05-10T12:18:50.183Z,2.40
2019-05-10T12:21:11.292Z,1.87
2019-05-10T12:23:50.661Z,1.67
2019-05-10T12:27:13.370Z,3.40
2019-05-10T12:28:42.760Z,1.47
2019-05-10T12:31:16.984Z,1.65
2019-05-10T12:33:46.373Z,0.90
2019-05-10T12:36:23.518Z,2.12
2019-05-10T12:38:48.000Z,2.42
2019-05-10T12:41:15.738Z,0.85
2019-05-10T12:43:43.642Z,2.50
2019-05-10T12:46:11.433Z,1.25
2019-05-10T12:48:39.106Z,3.20
2019-05-10T12:51:21.001Z,1.70
2019-05-10T12:53:49.835Z,1.55
2019-05-10T12:56:20.737Z,2.27
2019-05-10T12:58:56.759Z,2.20
2019-05-10T13:01:19.266Z,2.47
2019-05-10T13:03:49.034Z,2.42
2019-05-10T13:06:19.630Z,3.87
2019-05-10T13:08:47.539Z,1.20
2019-05-10T13:11:18.867Z,1.25
2019-05-10T13:13:44.669Z,2.40
2019-05-10T13:16:12.297Z,2.22
2019-05-10T13:18:50.474Z,2.10
2019-05-10T13:21:20.012Z,1.92
2019-05-10T13:23:38.912Z,5.22
2019-05-10T13:26:08.103Z,1.35
2019-05-10T13:28:35.725Z,1.00
2019-05-10T13:31:05.550Z,1.10
2019-05-10T13:33:40.730Z,3.05
2019-05-10T13:36:01.972Z,1.20
2019-05-10T13:38:29.861Z,1.07
2019-05-10T13:40:57.477Z,1.65
2019-05-10T13:43:26.767Z,1.47
2019-05-10T13:45:54.640Z,1.57
2019-05-10T13:48:26.406Z,1.55
2019-05-10T13:50:53.197Z,1.02
2019-05-10T13:53:23.152Z,1.27
2019-05-10T13:55:50.048Z,0.82
2019-05-10T13:58:17.633Z,2.72
2019-05-10T14:00:45.264Z,1.27
2019-05-10T14:03:13.559Z,0.72
2019-05-10T14:05:41.560Z,4.45
2019-05-10T14:08:09.149Z,2.77
2019-05-10T14:10:36.784Z,2.92
2019-05-10T14:13:04.372Z,2.45
2019-05-10T14:15:32.002Z,1.30
2019-05-10T14:17:59.897Z,1.40
2019-05-10T14:20:27.931Z,1.77
2019-05-10T14:22:58.375Z,1.20
2019-05-10T14:25:29.669Z,1.62
2019-05-10T14:27:54.334Z,1.47
2019-05-10T14:30:21.939Z,3.60
2019-05-10T14:32:49.532Z,1.30
2019-05-10T14:35:22.423Z,2.02
2019-05-10T14:37:48.163Z,1.22
2019-05-10T14:40:16.933Z,0.88
2019-05-10T14:42:45.192Z,2.42
2019-05-10T14:45:13.082Z,2.45
2019-05-10T14:47:48.464Z,1.57
2019-05-10T14:50:09.919Z,2.35
2019-05-10T14:52:38.645Z,1.30
2019-05-10T14:55:06.264Z,1.25
2019-05-10T14:57:34.025Z,1.55
2019-05-10T15:00:02.182Z,1.57
2019-05-10T15:02:30.383Z,0.62
2019-05-10T15:05:01.058Z,1.00
2019-05-10T15:07:27.236Z,1.47
2019-05-10T15:10:00.250Z,4.08
2019-05-10T15:12:24.374Z,0.98
2019-05-10T15:14:51.970Z,1.55
2019-05-10T15:17:20.377Z,2.15
2019-05-10T15:19:55.748Z,4.15
2019-05-10T15:22:18.466Z,1.20
2019-05-10T15:24:46.629Z,2.10
2019-05-10T15:27:16.206Z,2.35
2019-05-10T15:29:44.382Z,2.42
2019-05-10T15:32:12.000Z,1.60
2019-05-10T15:34:39.651Z,1.37
2019-05-10T15:37:09.228Z,3.33
2019-05-10T15:39:36.517Z,0.75
2019-05-10T15:42:04.120Z,3.12
2019-05-10T15:44:33.671Z,0.70
2019-05-10T15:47:02.676Z,2.60
2019-05-10T15:49:30.259Z,1.20
2019-05-10T15:52:16.170Z,1.07
2019-05-10T15:54:27.117Z,2.65
2019-05-10T15:59:23.854Z,2.17
2019-05-10T15:59:24.194Z,1.77
2019-05-10T16:01:51.925Z,0.88
2019-05-10T16:04:19.508Z,1.17
2019-05-10T16:06:47.129Z,3.33
2019-05-10T16:09:17.667Z,2.75
2019-05-10T16:11:43.992Z,0.90
2019-05-10T16:14:11.731Z,2.15
2019-05-10T16:16:39.795Z,2.08
2019-05-10T16:19:07.466Z,1.82
2019-05-10T16:21:35.053Z,1.05
2019-05-10T16:26:49.293Z,1.85
2019-05-10T16:29:16.872Z,1.42
2019-05-10T16:31:44.785Z,3.60
2019-05-10T16:34:12.412Z,1.20
2019-05-10T16:36:39.993Z,3.33
2019-05-10T16:39:07.609Z,1.75
2019-05-10T16:41:35.193Z,0.82
2019-05-10T16:44:03.601Z,1.42
2019-05-10T16:46:31.185Z,2.98
2019-05-10T16:48:59.144Z,1.70
2019-05-10T16:51:26.736Z,1.10
2019-05-10T16:53:54.344Z,1.05
2019-05-10T16:56:21.932Z,1.15
2019-05-10T16:58:52.992Z,4.92
2019-05-10T17:01:25.156Z,2.67
2019-05-10T17:03:51.213Z,2.27
2019-05-10T17:06:17.564Z,5.28
2019-05-10T17:08:45.189Z,1.85
2019-05-10T17:11:12.772Z,3.10
2019-05-10T17:13:41.524Z,3.12
2019-05-10T17:16:11.647Z,3.27
2019-05-10T17:18:39.165Z,1.35
2019-05-10T17:21:06.748Z,1.47
2019-05-10T17:23:34.659Z,2.22
2019-05-10T17:26:02.249Z,1.87
2019-05-10T17:28:35.410Z,0.80
2019-05-10T17:31:06.678Z,2.30
2019-05-10T17:33:28.936Z,1.52
2019-05-10T17:36:08.026Z,9.50
2019-05-10T17:38:27.723Z,2.70
2019-05-10T17:40:55.267Z,2.10
2019-05-10T17:43:22.942Z,1.62
2019-05-10T17:45:50.545Z,2.30
2019-05-10T17:48:18.305Z,2.98
2019-05-10T17:50:46.125Z,2.33
2019-05-10T17:53:13.960Z,2.70
2019-05-10T17:55:41.585Z,4.00
2019-05-10T17:58:09.177Z,4.17
2019-05-10T18:00:36.804Z,1.72
2019-05-10T18:03:04.385Z,1.75
2019-05-10T18:05:32.004Z,2.80
2019-05-10T18:07:59.609Z,3.45
2019-05-10T18:10:27.215Z,2.33
2019-05-10T18:12:57.376Z,1.75
2019-05-10T18:15:27.733Z,2.92
2019-05-10T18:17:57.449Z,3.35
2019-05-10T18:20:22.565Z,2.27
2019-05-10T18:22:50.434Z,3.12
2019-05-10T18:25:20.355Z,1.65
2019-05-10T18:27:47.303Z,2.55
2019-05-10T18:30:14.928Z,2.42
2019-05-10T18:32:42.796Z,4.17
2019-05-10T18:35:14.415Z,2.60
2019-05-10T18:37:41.841Z,2.45
2019-05-10T18:40:09.785Z,2.77
2019-05-10T18:42:37.662Z,2.92
2019-05-10T18:45:06.442Z,2.35
2019-05-10T18:47:34.034Z,4.20
2019-05-10T18:50:01.651Z,1.62
2019-05-10T18:52:29.240Z,4.50
2019-05-10T18:54:56.991Z,4.08
2019-05-10T18:57:24.581Z,12.18
2019-05-10T18:59:52.205Z,9.73
2019-05-10T19:02:20.133Z,7.95
2019-05-10T19:04:52.068Z,10.20
2019-05-10T19:07:17.763Z,7.67
2019-05-10T19:09:45.383Z,8.95
2019-05-10T19:12:18.609Z,7.58
2019-05-10T19:14:42.365Z,4.80
2019-05-10T19:17:11.086Z,6.45
2019-05-10T19:19:41.982Z,9.63
2019-05-10T19:22:08.764Z,6.12
2019-05-10T19:24:37.269Z,10.30
2019-05-10T19:27:07.545Z,12.88
2019-05-10T19:29:38.573Z,5.08
2019-05-10T19:32:03.573Z,2.10
2019-05-10T19:34:31.436Z,1.87
2019-05-10T19:36:59.052Z,3.17
2019-05-10T19:39:27.655Z,1.60
2019-05-10T19:42:03.015Z,2.50
2019-05-10T19:44:24.809Z,3.77
2019-05-10T19:46:54.174Z,4.80
2019-05-10T19:49:21.753Z,4.55
2019-05-10T19:51:50.423Z,3.70
2019-05-10T19:54:19.532Z,4.42
2019-05-10T19:56:47.404Z,3.75
2019-05-10T19:59:14.999Z,3.52
2019-05-10T20:01:45.100Z,2.65
2019-05-10T20:04:12.149Z,5.78
2019-05-10T20:06:40.078Z,3.87
2019-05-10T20:09:07.664Z,3.62
2019-05-10T20:11:35.586Z,4.12
2019-05-10T20:14:07.167Z,2.87
2019-05-10T20:16:32.802Z,2.95
2019-05-10T20:19:00.699Z,3.70
2019-05-10T20:21:28.646Z,4.12
2019-05-10T20:23:56.200Z,4.83
2019-05-10T20:26:23.841Z,3.95
2019-05-10T20:28:51.433Z,2.35
2019-05-10T20:31:19.050Z,4.55
2019-05-10T20:33:46.641Z,2.80
2019-05-10T20:36:14.270Z,3.77
2019-05-10T20:38:41.929Z,3.95
2019-05-10T20:41:09.824Z,6.37
2019-05-10T20:43:37.408Z,4.42
2019-05-10T20:46:07.152Z,4.78
2019-05-10T20:48:34.565Z,3.65
2019-05-10T20:51:02.184Z,2.62
2019-05-10T20:53:30.095Z,3.45
2019-05-10T20:55:57.969Z,5.45
2019-05-10T20:58:25.553Z,3.27
2019-05-10T21:00:53.169Z,5.80
2019-05-10T21:03:20.753Z,4.20
2019-05-10T21:05:48.369Z,4.60
2019-05-10T21:08:17.328Z,5.03
2019-05-10T21:10:45.050Z,4.00
2019-05-10T21:13:12.985Z,2.95
2019-05-10T21:15:42.192Z,2.80
2019-05-10T21:18:09.818Z,4.72
2019-05-10T21:20:37.566Z,7.90
2019-05-10T21:23:05.474Z,73.02
2019-05-10T21:25:33.098Z,73.87
2019-05-10T21:28:00.717Z,49.30
2019-05-10T21:30:28.594Z,50.85
2019-05-10T21:32:56.222Z,31.12
2019-05-10T21:35:23.865Z,65.67
2019-05-10T21:37:51.483Z,31.93
2019-05-10T21:40:19.078Z,47.35
2019-05-10T21:42:46.699Z,36.17
2019-05-10T21:45:14.289Z,13.83
2019-05-10T21:47:51.296Z,7.28
2019-05-10T21:50:11.486Z,8.35
2019-05-10T21:52:39.135Z,5.72
2019-05-10T21:55:07.090Z,7.58
2019-05-10T21:57:34.752Z,8.00
2019-05-10T22:00:02.465Z,5.05
2019-05-10T22:02:30.129Z,8.33
2019-05-10T22:04:57.758Z,5.10
2019-05-10T22:07:25.431Z,3.98
2019-05-10T22:09:53.054Z,2.80
2019-05-10T22:12:21.002Z,4.65
2019-05-10T22:14:49.029Z,6.00
2019-05-10T22:17:18.012Z,10.38
2019-05-10T22:19:45.661Z,4.62
2019-05-10T22:22:13.313Z,4.60
2019-05-10T22:24:41.243Z,4.05
2019-05-10T22:27:08.884Z,3.92
2019-05-10T22:29:36.852Z,4.22
2019-05-10T22:32:04.510Z,4.37
2019-05-10T22:34:32.479Z,3.27
2019-05-10T22:37:02.069Z,4.17
2019-05-10T22:39:29.725Z,4.72
2019-05-10T22:41:57.347Z,6.37
2019-05-10T22:44:25.336Z,3.77
2019-05-10T22:46:53.665Z,3.50
2019-05-10T22:49:21.733Z,4.78
2019-05-10T22:51:49.659Z,3.55
2019-05-10T22:54:17.312Z,3.47
2019-05-10T22:56:45.307Z,4.20
2019-05-10T22:59:12.923Z,4.67
2019-05-10T23:01:40.550Z,5.03
2019-05-10T23:04:08.261Z,4.87
2019-05-10T23:06:35.860Z,4.22
2019-05-10T23:09:04.229Z,5.12
2019-05-10T23:11:32.157Z,5.05
2019-05-10T23:14:00.099Z,6.53
2019-05-10T23:16:27.724Z,5.40
2019-05-10T23:18:57.343Z,4.30
2019-05-10T23:21:24.977Z,4.60
2019-05-10T23:23:52.953Z,4.20
2019-05-10T23:26:20.885Z,4.87
2019-05-10T23:28:48.550Z,2.70
2019-05-10T23:31:16.253Z,4.83
2019-05-10T23:33:44.214Z,5.22
2019-05-10T23:36:11.867Z,4.30
2019-05-10T23:38:39.848Z,4.95
2019-05-10T23:41:07.785Z,5.20
2019-05-10T23:43:35.614Z,5.60
2019-05-10T23:46:03.632Z,5.65
2019-05-10T23:48:31.284Z,4.17
2019-05-10T23:50:58.913Z,6.47
2019-05-10T23:53:26.740Z,3.62
2019-05-10T23:55:54.365Z,4.20
2019-05-10T23:58:22.024Z,4.05
